Time;durP1;ratioP1;P1;durP2;ratioP2;P2;SDS_P1;SDS_P2;PMS_P1;PMS_P2;Temp;Humidity;BMP_temperature;BMP_pressure;BME280_temperature;BME280_humidity;BME280_pressure;Samples;Min_cycle;Max_cycle;Signal;HPM_P1;HPM_P2
2022/04/04 00:02:23;;;;;;;12.43;7.22;;;3.00;72.60;;;;;;4886537;29;20407;-85
2022/04/04 00:04:49;;;;;;;10.07;6.82;;;3.00;72.70;;;;;;4882846;29;20068;-85
2022/04/04 00:07:16;;;;;;;9.25;6.28;;;2.90;72.70;;;;;;4884564;29;20049;-86
2022/04/04 00:09:44;;;;;;;11.57;6.78;;;2.90;72.70;;;;;;4886768;29;20063;-85
2022/04/04 00:12:11;;;;;;;10.25;7.10;;;2.90;72.80;;;;;;4886800;29;20197;-86
2022/04/04 00:14:38;;;;;;;11.15;6.85;;;2.90;72.80;;;;;;4887027;29;20053;-86
2022/04/04 00:17:05;;;;;;;10.40;6.65;;;2.90;72.80;;;;;;4884104;29;20509;-86
2022/04/04 00:19:32;;;;;;;12.10;6.95;;;2.90;72.90;;;;;;4882757;29;20116;-86
2022/04/04 00:21:59;;;;;;;10.40;6.55;;;2.90;72.90;;;;;;4897050;29;20060;-86
2022/04/04 00:24:27;;;;;;;9.95;7.07;;;2.90;72.90;;;;;;4889787;29;20053;-87
2022/04/04 00:26:54;;;;;;;10.80;7.13;;;2.90;72.90;;;;;;4886972;29;20068;-86
2022/04/04 00:29:21;;;;;;;9.65;6.70;;;2.90;72.90;;;;;;4885847;29;20051;-85
2022/04/04 00:31:48;;;;;;;10.57;6.65;;;2.90;73.00;;;;;;4882398;29;20048;-85
2022/04/04 00:34:15;;;;;;;9.70;6.65;;;2.90;73.00;;;;;;4884226;29;20136;-86
2022/04/04 00:36:43;;;;;;;9.85;6.85;;;2.90;73.00;;;;;;4886732;29;20105;-86
2022/04/04 00:39:11;;;;;;;9.27;6.88;;;2.90;73.00;;;;;;4886323;29;20471;-85
2022/04/04 00:41:38;;;;;;;8.73;6.35;;;2.90;73.00;;;;;;4886623;29;20447;-85
2022/04/04 00:44:05;;;;;;;9.65;6.03;;;2.90;73.10;;;;;;4882495;29;20417;-85
2022/04/04 00:46:32;;;;;;;8.90;6.22;;;2.90;73.10;;;;;;4882330;29;20104;-85
2022/04/04 00:48:59;;;;;;;9.55;6.65;;;2.90;73.10;;;;;;4896697;29;20053;-85
2022/04/04 00:51:26;;;;;;;8.18;6.45;;;2.90;73.10;;;;;;4889332;29;20511;-86
2022/04/04 00:53:53;;;;;;;12.15;6.63;;;2.80;73.20;;;;;;4886380;29;20056;-85
2022/04/04 00:56:21;;;;;;;9.32;6.50;;;2.90;73.20;;;;;;4885396;29;20120;-84
2022/04/04 00:58:48;;;;;;;8.13;5.93;;;2.90;73.20;;;;;;4881903;29;20509;-84
2022/04/04 01:01:15;;;;;;;10.45;6.28;;;2.90;73.20;;;;;;4883904;29;20491;-85
2022/04/04 01:03:42;;;;;;;9.65;6.30;;;2.90;73.20;;;;;;4886286;29;20489;-85
2022/04/04 01:06:09;;;;;;;10.35;6.65;;;2.90;73.20;;;;;;4885933;29;20080;-85
2022/04/04 01:08:37;;;;;;;10.10;6.63;;;2.80;73.30;;;;;;4886233;29;20048;-86
2022/04/04 01:11:04;;;;;;;10.02;6.13;;;2.80;73.30;;;;;;4882863;29;20108;-85
2022/04/04 01:13:31;;;;;;;8.27;6.03;;;2.90;73.30;;;;;;4882291;29;20109;-85
2022/04/04 01:15:58;;;;;;;10.55;6.53;;;2.80;73.30;;;;;;4885555;29;20048;-85
2022/04/04 01:18:25;;;;;;;8.90;6.30;;;2.80;73.30;;;;;;4886097;29;20045;-85
2022/04/04 01:20:52;;;;;;;10.88;5.85;;;2.80;73.30;;;;;;4885847;29;20124;-85
2022/04/04 01:23:24;;;;;;;9.27;6.00;;;2.90;73.30;;;;;;4884844;29;20047;-84
2022/04/04 01:25:51;;;;;;;8.43;5.70;;;2.80;73.30;;;;;;4880189;29;20080;-84
2022/04/04 01:28:19;;;;;;;8.68;6.10;;;2.80;73.30;;;;;;4883159;29;20056;-84
2022/04/04 01:30:51;;;;;;;10.00;6.20;;;2.80;73.30;;;;;;4885927;29;20056;-86
2022/04/04 01:33:18;;;;;;;9.15;6.30;;;2.80;73.30;;;;;;4884804;29;20076;-85
2022/04/04 01:35:46;;;;;;;9.93;6.53;;;2.80;73.30;;;;;;4885624;29;20045;-86
2022/04/04 01:38:13;;;;;;;11.82;6.10;;;2.80;73.30;;;;;;4884121;29;20053;-85
2022/04/04 01:40:40;;;;;;;10.68;6.53;;;2.80;73.30;;;;;;4881487;29;20112;-85
2022/04/04 01:43:07;;;;;;;10.48;6.47;;;2.70;73.30;;;;;;4882654;29;20052;-85
2022/04/04 01:48:19;;;;;;;7.88;5.63;;;2.70;73.40;;;;;;4885891;29;20117;-84
2022/04/04 01:50:46;;;;;;;8.68;6.80;;;2.70;73.40;;;;;;4885535;29;20057;-84
2022/04/04 01:53:25;;;;;;;12.70;6.57;;;2.70;73.40;;;;;;4883840;29;20067;-85
2022/04/04 01:56:00;;;;;;;11.65;6.70;;;2.70;73.40;;;;;;4881319;29;20053;-85
2022/04/04 01:58:27;;;;;;;9.85;6.68;;;2.70;73.50;;;;;;4893354;29;20071;-85
2022/04/04 02:00:56;;;;;;;8.40;6.38;;;2.70;73.50;;;;;;4885352;29;20057;-84
2022/04/04 02:03:25;;;;;;;9.65;6.20;;;2.70;73.50;;;;;;4885676;29;20132;-85
2022/04/04 02:05:53;;;;;;;9.10;6.35;;;2.70;73.50;;;;;;4885404;29;20581;-85
2022/04/04 02:08:19;;;;;;;10.85;6.32;;;2.70;73.60;;;;;;4884407;29;20513;-84
2022/04/04 02:10:46;;;;;;;9.70;6.28;;;2.70;73.60;;;;;;4879863;29;20132;-85
2022/04/04 02:13:13;;;;;;;8.20;6.00;;;2.70;73.60;;;;;;4883503;29;20057;-86
2022/04/04 02:15:40;;;;;;;11.38;6.53;;;2.70;73.70;;;;;;4885602;29;20121;-86
2022/04/04 02:18:08;;;;;;;10.75;6.65;;;2.70;73.70;;;;;;4885733;29;20069;-85
2022/04/04 02:20:35;;;;;;;8.93;6.10;;;2.70;73.80;;;;;;4884149;29;20116;-85
2022/04/04 02:23:03;;;;;;;11.80;6.35;;;2.70;73.80;;;;;;4881008;29;20056;-85
2022/04/04 02:25:29;;;;;;;8.65;6.22;;;2.70;73.90;;;;;;4881430;29;20060;-87
2022/04/04 02:27:56;;;;;;;9.65;6.05;;;2.70;73.90;;;;;;4884320;29;20068;-85
2022/04/04 02:30:24;;;;;;;10.00;7.05;;;2.70;74.00;;;;;;4885526;29;20411;-86
2022/04/04 02:32:51;;;;;;;9.85;6.70;;;2.70;74.10;;;;;;4885222;29;20045;-87
2022/04/04 02:35:19;;;;;;;10.05;6.28;;;2.70;74.10;;;;;;4884047;29;20063;-86
2022/04/04 02:37:47;;;;;;;13.02;6.57;;;2.80;74.10;;;;;;4883765;29;20067;-85
2022/04/04 02:40:14;;;;;;;7.78;5.85;;;2.80;74.20;;;;;;4886640;29;20052;-85
2022/04/04 02:42:41;;;;;;;8.85;5.75;;;2.80;74.30;;;;;;4887671;29;20052;-86
2022/04/04 02:45:08;;;;;;;7.60;5.60;;;2.90;74.30;;;;;;4887596;29;20097;-86
2022/04/04 02:47:35;;;;;;;9.18;5.90;;;2.90;74.30;;;;;;4887052;29;20533;-86
2022/04/04 02:50:03;;;;;;;8.50;5.70;;;2.90;74.40;;;;;;4885295;29;20049;-86
2022/04/04 02:52:30;;;;;;;9.82;5.93;;;2.90;74.50;;;;;;4884528;29;20053;-85
2022/04/04 02:54:57;;;;;;;10.40;5.78;;;2.90;74.50;;;;;;4888136;29;20105;-86
2022/04/04 02:57:24;;;;;;;7.97;5.85;;;2.90;74.50;;;;;;4887372;29;20053;-86
2022/04/04 02:59:51;;;;;;;8.65;5.97;;;2.90;74.60;;;;;;4888341;29;20049;-86
2022/04/04 03:02:18;;;;;;;9.88;5.50;;;3.00;74.60;;;;;;4886788;29;20052;-86
2022/04/04 03:04:46;;;;;;;10.18;5.68;;;3.00;74.60;;;;;;4884102;29;20140;-86
2022/04/04 03:07:13;;;;;;;10.55;6.25;;;3.00;74.70;;;;;;4886235;29;20057;-86
2022/04/04 03:09:40;;;;;;;9.02;5.90;;;3.10;74.70;;;;;;4888180;29;20060;-86
2022/04/04 03:12:08;;;;;;;7.97;5.68;;;3.00;74.70;;;;;;4888088;29;20049;-85
2022/04/04 03:14:34;;;;;;;8.05;6.03;;;3.10;74.80;;;;;;4887017;29;20052;-86
2022/04/04 03:17:02;;;;;;;7.38;5.60;;;3.10;74.80;;;;;;4884330;29;20841;-86
2022/04/04 03:19:29;;;;;;;8.13;5.63;;;3.10;74.80;;;;;;4884029;29;20505;-86
2022/04/04 03:21:57;;;;;;;8.60;5.75;;;3.20;74.80;;;;;;4887544;29;20049;-86
2022/04/04 03:24:24;;;;;;;10.20;5.97;;;3.20;74.90;;;;;;4888060;29;20056;-86
2022/04/04 03:26:54;;;;;;;8.95;5.55;;;3.20;74.90;;;;;;4887978;29;20144;-86
2022/04/04 03:29:21;;;;;;;8.85;5.55;;;3.20;74.90;;;;;;4885725;29;20096;-86
2022/04/04 03:31:48;;;;;;;8.65;5.63;;;3.20;75.00;;;;;;4883206;29;20072;-86
2022/04/04 03:34:15;;;;;;;7.80;5.70;;;3.20;75.00;;;;;;4885653;29;20065;-85
2022/04/04 03:36:42;;;;;;;10.23;5.97;;;3.30;75.00;;;;;;4887702;29;20438;-86
2022/04/04 03:39:12;;;;;;;9.30;6.28;;;3.20;75.00;;;;;;4887669;29;20538;-85
2022/04/04 03:41:40;;;;;;;8.73;6.28;;;3.30;75.10;;;;;;4887782;29;20052;-86
2022/04/04 03:44:07;;;;;;;8.45;6.38;;;3.30;75.10;;;;;;4884854;29;20048;-86
2022/04/04 03:46:33;;;;;;;9.60;6.93;;;3.30;75.20;;;;;;4882920;29;20053;-86
2022/04/04 03:49:00;;;;;;;10.65;6.93;;;3.30;75.20;;;;;;4886648;29;20113;-86
2022/04/04 03:51:27;;;;;;;10.23;6.85;;;3.30;75.20;;;;;;4887638;29;20053;-87
2022/04/04 03:53:54;;;;;;;9.95;7.03;;;3.40;75.30;;;;;;4887432;29;20104;-87
2022/04/04 03:56:21;;;;;;;8.85;6.32;;;3.40;75.30;;;;;;4885503;29;20040;-86
2022/04/04 03:58:50;;;;;;;12.38;7.60;;;3.40;75.30;;;;;;4883007;29;20044;-86
2022/04/04 04:01:17;;;;;;;9.98;6.78;;;3.40;75.40;;;;;;4884365;29;20056;-86
2022/04/04 04:03:44;;;;;;;9.23;7.20;;;3.40;75.40;;;;;;4886158;29;20082;-86
2022/04/04 04:06:11;;;;;;;13.60;7.35;;;3.40;75.40;;;;;;4887165;29;20044;-86
2022/04/04 04:08:46;;;;;;;11.65;7.47;;;3.50;75.40;;;;;;4887143;29;20047;-85
2022/04/04 04:11:15;;;;;;;17.50;8.10;;;3.50;75.40;;;;;;4884804;29;20052;-86
2022/04/04 04:13:45;;;;;;;9.93;7.25;;;3.50;75.50;;;;;;4882799;29;20056;-87
2022/04/04 04:16:15;;;;;;;11.10;7.22;;;3.50;75.50;;;;;;4884669;29;20049;-87
2022/04/04 04:18:42;;;;;;;10.35;7.70;;;3.50;75.50;;;;;;4886982;29;20049;-86
2022/04/04 04:21:11;;;;;;;11.02;7.70;;;3.50;75.50;;;;;;4885882;29;20053;-86
2022/04/04 04:23:41;;;;;;;10.43;7.28;;;3.50;75.50;;;;;;4886806;29;20574;-87
2022/04/04 04:26:09;;;;;;;13.57;7.55;;;3.60;75.60;;;;;;4884427;29;20136;-86
2022/04/04 04:28:36;;;;;;;11.18;8.07;;;3.60;75.60;;;;;;4882607;29;20096;-88
2022/04/04 04:31:03;;;;;;;11.88;8.25;;;3.60;75.60;;;;;;4885649;29;20068;-86
2022/04/04 04:33:30;;;;;;;11.80;8.23;;;3.60;75.60;;;;;;4886934;29;20502;-87
2022/04/04 04:35:57;;;;;;;11.90;8.20;;;3.60;75.60;;;;;;4885374;29;20456;-86
2022/04/04 04:38:24;;;;;;;13.45;8.77;;;3.60;75.60;;;;;;4886001;29;20049;-87
2022/04/04 04:40:51;;;;;;;12.45;7.82;;;3.70;75.70;;;;;;4896455;29;20055;-86
2022/04/04 04:43:18;;;;;;;11.80;8.15;;;3.70;75.70;;;;;;4883844;29;20052;-87
2022/04/04 04:45:46;;;;;;;11.85;8.57;;;3.70;75.70;;;;;;4886511;29;20082;-86
2022/04/04 04:48:14;;;;;;;12.98;8.90;;;3.70;75.70;;;;;;4886458;29;20045;-86
2022/04/04 04:50:41;;;;;;;13.60;9.90;;;3.70;75.70;;;;;;4886534;29;20439;-87
2022/04/04 04:53:08;;;;;;;17.02;9.95;;;3.70;75.70;;;;;;4883813;29;20059;-86
2022/04/04 04:55:35;;;;;;;11.95;9.15;;;3.70;75.70;;;;;;4882179;29;20101;-87
2022/04/04 04:58:02;;;;;;;15.55;9.95;;;3.70;75.70;;;;;;4885156;29;20049;-86
2022/04/04 05:00:29;;;;;;;13.00;9.40;;;3.70;75.70;;;;;;4885639;29;20060;-87
2022/04/04 05:05:43;;;;;;;14.65;10.32;;;3.80;75.70;;;;;;4886290;29;20127;-86
2022/04/04 05:08:10;;;;;;;12.60;9.65;;;3.80;75.70;;;;;;4882725;29;20044;-87
2022/04/04 05:10:37;;;;;;;15.65;9.73;;;3.80;75.70;;;;;;4881784;29;20071;-86
2022/04/04 05:13:04;;;;;;;12.68;9.52;;;3.80;75.70;;;;;;4883787;29;20049;-87
2022/04/04 05:15:32;;;;;;;13.95;10.18;;;3.80;75.70;;;;;;4886199;29;20108;-87
2022/04/04 05:17:59;;;;;;;14.10;9.75;;;3.80;75.70;;;;;;4886146;29;20041;-86
2022/04/04 05:20:26;;;;;;;12.90;10.25;;;3.80;75.70;;;;;;4885677;29;20060;-86
2022/04/04 05:22:53;;;;;;;12.80;9.40;;;3.90;75.70;;;;;;4881479;29;20045;-86
2022/04/04 05:25:20;;;;;;;13.75;10.15;;;3.90;75.70;;;;;;4881940;29;20045;-86
2022/04/04 05:27:48;;;;;;;15.55;10.43;;;3.80;75.70;;;;;;4885795;29;20056;-87
2022/04/04 05:30:15;;;;;;;12.68;9.88;;;3.90;75.70;;;;;;4886046;29;20048;-86
2022/04/04 05:32:43;;;;;;;14.93;10.48;;;3.90;75.70;;;;;;4886217;29;20565;-87
2022/04/04 05:35:15;;;;;;;18.83;10.80;;;3.90;75.70;;;;;;4883477;29;20051;-87
2022/04/04 05:37:42;;;;;;;14.10;10.30;;;3.90;75.70;;;;;;4880705;29;20061;-88
2022/04/04 05:40:10;;;;;;;16.45;10.70;;;3.90;75.70;;;;;;4883095;29;20468;-87
2022/04/04 05:42:41;;;;;;;14.00;10.82;;;3.90;75.70;;;;;;4884501;29;20061;-87
2022/04/04 05:45:09;;;;;;;11.77;10.00;;;3.90;75.70;;;;;;4885921;29;20056;-86
2022/04/04 05:47:36;;;;;;;13.88;10.90;;;3.90;75.70;;;;;;4885931;29;20053;-86
2022/04/04 05:50:04;;;;;;;12.63;9.63;;;3.90;75.70;;;;;;4882559;29;20048;-87
2022/04/04 05:52:31;;;;;;;17.35;10.18;;;3.90;75.70;;;;;;4881722;29;20064;-85
2022/04/04 05:54:58;;;;;;;14.15;10.02;;;3.90;75.70;;;;;;4885494;29;20052;-84
2022/04/04 05:57:28;;;;;;;13.73;10.18;;;3.90;75.70;;;;;;4884182;29;20455;-85
2022/04/04 05:59:56;;;;;;;14.13;10.70;;;3.90;75.70;;;;;;4884360;29;20056;-85
2022/04/04 06:02:24;;;;;;;15.07;10.20;;;4.00;75.80;;;;;;4884891;29;20049;-84
2022/04/04 06:04:52;;;;;;;14.63;10.50;;;3.90;75.80;;;;;;4880273;29;20072;-88
2022/04/04 06:07:19;;;;;;;14.70;10.75;;;4.00;75.80;;;;;;4883027;29;20073;-87
2022/04/04 06:09:46;;;;;;;14.20;10.43;;;4.00;75.80;;;;;;4884555;29;20053;-87
2022/04/04 06:12:13;;;;;;;20.00;11.05;;;4.00;75.80;;;;;;4887579;29;20086;-88
2022/04/04 06:14:40;;;;;;;13.32;10.35;;;4.00;75.80;;;;;;4888070;29;20045;-87
2022/04/04 06:17:07;;;;;;;13.30;10.18;;;4.00;75.90;;;;;;4886416;29;20104;-86
2022/04/04 06:19:35;;;;;;;16.23;10.68;;;4.10;75.90;;;;;;4884979;29;20056;-86
2022/04/04 06:22:03;;;;;;;14.40;11.30;;;4.10;75.90;;;;;;4888305;29;20060;-86
2022/04/04 06:24:31;;;;;;;13.93;10.38;;;4.00;75.90;;;;;;4895889;29;20056;-86
2022/04/04 06:26:59;;;;;;;15.35;10.55;;;4.10;75.90;;;;;;4895791;29;20056;-85
2022/04/04 06:29:26;;;;;;;14.73;11.15;;;4.10;76.00;;;;;;4888565;29;20097;-85
2022/04/04 06:31:53;;;;;;;15.75;11.07;;;4.10;76.00;;;;;;4883404;29;20048;-85
2022/04/04 06:34:21;;;;;;;15.30;11.18;;;4.20;76.00;;;;;;4884748;29;20053;-85
2022/04/04 06:36:48;;;;;;;14.27;10.68;;;4.20;76.10;;;;;;4898768;29;20055;-85
2022/04/04 06:39:15;;;;;;;15.77;10.77;;;4.20;76.00;;;;;;4893478;29;20074;-85
2022/04/04 06:41:44;;;;;;;15.63;11.70;;;4.20;76.00;;;;;;4887362;29;20104;-85
2022/04/04 06:44:11;;;;;;;14.88;11.50;;;4.20;76.10;;;;;;4894012;29;20078;-86
2022/04/04 06:46:39;;;;;;;16.17;12.00;;;4.30;76.10;;;;;;4897923;29;20063;-86
2022/04/04 06:49:07;;;;;;;16.02;11.82;;;4.40;76.10;;;;;;4899062;29;20045;-84
2022/04/04 06:51:35;;;;;;;16.77;10.95;;;4.40;76.10;;;;;;4896284;29;20506;-85
2022/04/04 06:54:05;;;;;;;15.35;10.82;;;4.40;76.10;;;;;;4895226;29;20071;-85
2022/04/04 06:56:34;;;;;;;15.88;11.13;;;4.40;76.10;;;;;;4895233;29;20060;-85
2022/04/04 06:59:02;;;;;;;13.90;11.02;;;4.40;76.10;;;;;;4895660;29;20060;-85
2022/04/04 07:01:31;;;;;;;18.42;11.27;;;4.50;76.10;;;;;;4898749;29;20052;-85
2022/04/04 07:03:58;;;;;;;15.40;10.88;;;4.50;76.10;;;;;;4898404;29;20104;-84
2022/04/04 07:06:25;;;;;;;14.48;11.65;;;4.50;76.10;;;;;;4897421;29;20052;-84
2022/04/04 07:08:52;;;;;;;16.98;11.55;;;4.50;76.10;;;;;;4902880;29;20044;-85
2022/04/04 07:11:20;;;;;;;14.60;10.80;;;4.60;76.00;;;;;;4895319;29;20064;-86
2022/04/04 07:13:49;;;;;;;16.05;11.05;;;4.60;76.00;;;;;;4897649;29;20059;-86
2022/04/04 07:16:18;;;;;;;14.23;10.25;;;4.60;75.90;;;;;;4907635;29;20056;-86
2022/04/04 07:18:47;;;;;;;16.02;10.30;;;4.70;75.90;;;;;;4895533;29;20112;-86
2022/04/04 07:21:15;;;;;;;15.65;10.82;;;4.70;75.80;;;;;;4894990;29;20056;-86
2022/04/04 07:23:42;;;;;;;12.85;10.30;;;4.70;75.80;;;;;;4894075;29;20071;-87
2022/04/04 07:26:09;;;;;;;15.02;11.15;;;4.80;75.70;;;;;;4896830;29;20048;-84
2022/04/04 07:28:42;;;;;;;12.60;10.38;;;4.80;75.70;;;;;;4896097;29;20549;-84
2022/04/04 07:31:11;;;;;;;15.00;10.40;;;4.80;75.60;;;;;;4895877;29;20052;-84
2022/04/04 07:33:43;;;;;;;17.33;10.82;;;4.90;75.50;;;;;;4896246;29;20049;-85
2022/04/04 07:36:13;;;;;;;12.65;9.45;;;4.90;75.40;;;;;;4894688;29;20104;-88
2022/04/04 07:38:40;;;;;;;12.90;9.77;;;4.90;75.30;;;;;;4894181;29;20056;-86
2022/04/04 07:41:07;;;;;;;12.85;9.57;;;4.90;75.20;;;;;;4896321;29;20104;-86
2022/04/04 07:43:35;;;;;;;13.38;9.85;;;5.00;75.10;;;;;;4896299;29;20053;-85
2022/04/04 07:46:02;;;;;;;13.68;9.98;;;5.00;75.00;;;;;;4897570;29;20407;-86
2022/04/04 07:48:32;;;;;;;13.27;9.48;;;5.00;74.80;;;;;;4896195;29;20144;-85
2022/04/04 07:50:59;;;;;;;11.98;8.85;;;5.10;74.70;;;;;;4895836;29;20052;-85
2022/04/04 07:53:26;;;;;;;13.23;8.30;;;5.10;74.50;;;;;;4905147;29;20044;-86
2022/04/04 07:55:53;;;;;;;11.18;8.57;;;5.20;74.30;;;;;;4895073;29;20060;-85
2022/04/04 07:58:20;;;;;;;13.20;7.88;;;5.20;74.20;;;;;;4897825;29;20060;-84
2022/04/04 08:00:47;;;;;;;10.02;7.65;;;5.20;73.90;;;;;;4896564;29;20111;-86
2022/04/04 08:03:15;;;;;;;11.45;7.85;;;5.30;73.70;;;;;;4894020;29;20052;-85
2022/04/04 08:05:43;;;;;;;14.45;8.60;;;5.30;73.40;;;;;;4896354;29;20422;-86
2022/04/04 08:08:10;;;;;;;12.65;7.40;;;5.40;73.30;;;;;;4893002;29;20057;-85
2022/04/04 08:10:37;;;;;;;12.50;7.72;;;5.40;73.10;;;;;;4896121;29;20049;-86
2022/04/04 08:13:04;;;;;;;11.32;7.60;;;5.40;72.90;;;;;;4895877;29;20052;-86
2022/04/04 08:15:31;;;;;;;9.82;7.20;;;5.40;72.70;;;;;;4890511;29;20126;-86
2022/04/04 08:17:58;;;;;;;12.90;7.85;;;5.50;72.60;;;;;;4893905;29;20569;-86
2022/04/04 08:20:25;;;;;;;13.52;7.45;;;5.50;72.50;;;;;;4892725;29;20048;-85
2022/04/04 08:22:52;;;;;;;10.85;7.53;;;5.60;72.30;;;;;;4893111;29;20060;-87
2022/04/04 08:25:19;;;;;;;11.70;7.15;;;5.60;72.20;;;;;;4896786;29;20100;-87
2022/04/04 08:27:46;;;;;;;9.57;6.85;;;5.60;72.10;;;;;;4893695;29;20064;-88
2022/04/04 08:30:17;;;;;;;13.32;6.88;;;5.70;71.90;;;;;;4892643;29;20553;-86
2022/04/04 08:32:46;;;;;;;11.07;7.80;;;5.70;71.80;;;;;;4895422;29;20045;-86
2022/04/04 08:35:15;;;;;;;9.57;6.88;;;5.70;71.70;;;;;;4893846;29;20044;-85
2022/04/04 08:37:43;;;;;;;9.95;6.72;;;5.70;71.60;;;;;;4895186;29;20261;-86
2022/04/04 08:40:13;;;;;;;11.98;7.25;;;5.80;71.50;;;;;;4896029;29;20508;-85
2022/04/04 08:42:41;;;;;;;11.48;7.40;;;5.80;71.50;;;;;;4893758;29;20403;-87
2022/04/04 08:45:09;;;;;;;10.98;6.63;;;5.90;71.30;;;;;;4893722;29;20040;-86
2022/04/04 08:47:36;;;;;;;10.07;7.45;;;5.90;71.20;;;;;;4893824;29;20053;-87
2022/04/04 08:50:06;;;;;;;10.55;6.90;;;6.00;71.20;;;;;;4893446;29;20060;-87
2022/04/04 08:52:33;;;;;;;11.30;7.35;;;6.00;71.10;;;;;;4896457;29;20055;-86
2022/04/04 08:55:00;;;;;;;9.45;6.82;;;6.00;71.00;;;;;;4896332;29;20096;-86
2022/04/04 08:57:27;;;;;;;10.07;7.38;;;6.10;70.80;;;;;;4893605;29;20082;-85
2022/04/04 08:59:54;;;;;;;9.63;7.35;;;6.10;70.70;;;;;;4893368;29;20056;-86
2022/04/04 09:02:21;;;;;;;9.25;6.50;;;6.20;70.60;;;;;;4893593;29;20053;-85
2022/04/04 09:04:51;;;;;;;9.15;7.15;;;6.20;70.50;;;;;;4894235;29;20052;-85
2022/04/04 09:07:19;;;;;;;9.73;7.35;;;6.20;70.40;;;;;;4896654;29;20183;-86
2022/04/04 09:09:50;;;;;;;10.38;6.80;;;6.40;70.30;;;;;;4893076;29;20462;-86
2022/04/04 09:12:21;;;;;;;11.15;6.53;;;6.40;70.10;;;;;;4893254;29;20052;-87
2022/04/04 09:14:51;;;;;;;12.30;7.10;;;6.40;69.90;;;;;;4893195;29;20052;-85
2022/04/04 09:17:23;;;;;;;10.07;6.38;;;6.40;69.80;;;;;;4893097;29;20057;-87
2022/04/04 09:19:50;;;;;;;12.63;6.50;;;6.50;69.60;;;;;;4894027;29;20068;-85
2022/04/04 09:22:19;;;;;;;10.07;6.60;;;6.50;69.40;;;;;;4896323;29;20060;-87
2022/04/04 09:24:57;;;;;;;9.55;6.80;;;6.60;69.20;;;;;;4894729;29;20052;-86
2022/04/04 09:27:36;;;;;;;12.43;6.78;;;6.60;69.10;;;;;;4893032;29;20056;-85
2022/04/04 09:30:07;;;;;;;10.45;7.30;;;6.70;69.00;;;;;;4893235;29;20100;-85
2022/04/04 09:32:38;;;;;;;14.13;6.55;;;6.70;68.80;;;;;;4893014;29;20127;-86
2022/04/04 09:35:14;;;;;;;10.85;6.53;;;6.80;68.80;;;;;;4892963;29;20068;-86
2022/04/04 09:37:44;;;;;;;9.68;6.43;;;6.90;68.70;;;;;;4895381;29;20061;-86
2022/04/04 09:40:16;;;;;;;9.57;6.13;;;6.90;68.60;;;;;;4895802;29;20057;-85
2022/04/04 09:42:57;;;;;;;12.65;6.90;;;6.90;68.50;;;;;;4893152;29;20196;-85
2022/04/04 09:45:28;;;;;;;11.60;6.95;;;7.00;68.40;;;;;;4893698;29;20045;-86
2022/04/04 09:48:04;;;;;;;9.77;6.38;;;7.00;68.30;;;;;;4897811;29;20509;-86
2022/04/04 09:50:32;;;;;;;10.82;6.53;;;7.10;68.30;;;;;;4896692;29;20052;-88
2022/04/04 09:53:06;;;;;;;8.57;6.60;;;7.10;68.30;;;;;;4896760;29;20057;-87
2022/04/04 09:55:36;;;;;;;10.15;7.03;;;7.20;68.30;;;;;;4899250;29;20052;-86
2022/04/04 09:58:06;;;;;;;9.23;6.07;;;7.20;68.30;;;;;;4897565;29;20052;-85
2022/04/04 10:00:37;;;;;;;10.88;6.57;;;7.20;68.30;;;;;;4896498;29;20075;-87
2022/04/04 10:03:07;;;;;;;10.18;6.80;;;7.20;68.30;;;;;;4896101;29;20056;-88
2022/04/04 10:05:35;;;;;;;10.90;7.13;;;7.30;68.30;;;;;;4896570;29;20064;-86
2022/04/04 10:08:03;;;;;;;11.52;6.53;;;7.30;68.30;;;;;;4896707;29;20048;-87
2022/04/04 10:10:31;;;;;;;9.90;6.55;;;7.40;68.40;;;;;;4899421;29;20049;-86
2022/04/04 10:12:59;;;;;;;10.15;6.47;;;7.40;68.40;;;;;;4896550;29;20048;-87
2022/04/04 10:15:35;;;;;;;9.53;6.53;;;7.40;68.40;;;;;;4896225;29;20059;-87
2022/04/04 10:18:03;;;;;;;9.70;6.30;;;7.50;68.40;;;;;;4897196;29;20317;-87
2022/04/04 10:20:30;;;;;;;9.93;6.50;;;7.50;68.30;;;;;;4898032;29;20052;-87
2022/04/04 10:22:58;;;;;;;9.00;6.28;;;7.50;68.30;;;;;;4881672;29;20079;-86
2022/04/04 10:25:28;;;;;;;11.70;6.25;;;7.60;68.20;;;;;;4896431;29;20052;-86
2022/04/04 10:27:56;;;;;;;10.93;6.05;;;7.60;68.10;;;;;;4908516;29;20075;-86
2022/04/04 10:30:34;;;;;;;11.57;5.78;;;7.60;67.90;;;;;;4895929;29;20052;-85
2022/04/04 10:33:03;;;;;;;10.82;6.40;;;7.70;67.80;;;;;;4895601;29;20048;-85
2022/04/04 10:35:32;;;;;;;11.60;6.22;;;7.70;67.70;;;;;;4895862;29;20164;-86
2022/04/04 10:38:04;;;;;;;8.75;5.85;;;7.70;67.70;;;;;;4881471;29;20207;-87
2022/04/04 10:40:33;;;;;;;7.85;6.00;;;7.70;67.60;;;;;;4898969;29;20418;-85
2022/04/04 10:43:07;;;;;;;11.23;5.47;;;7.70;67.60;;;;;;4898362;29;20049;-87
2022/04/04 10:46:00;;;;;;;13.38;5.78;;;7.80;67.60;;;;;;4897484;29;20068;-86
2022/04/04 10:48:38;;;;;;;9.30;5.85;;;7.80;67.60;;;;;;4897208;29;20052;-88
2022/04/04 10:51:12;;;;;;;9.50;5.63;;;7.80;67.60;;;;;;4895664;29;20049;-87
2022/04/04 10:54:06;;;;;;;9.93;5.80;;;7.80;67.60;;;;;;4895761;29;20056;-85
2022/04/04 10:56:38;;;;;;;9.75;7.05;;;7.80;67.60;;;;;;4888324;29;20467;-86
2022/04/04 10:59:23;;;;;;;12.13;7.13;;;7.80;67.60;;;;;;4895554;29;20061;-86
2022/04/04 11:01:54;;;;;;;9.35;6.28;;;7.90;67.60;;;;;;4896624;29;20052;-86
2022/04/04 11:04:28;;;;;;;10.38;6.93;;;7.90;67.60;;;;;;4899064;29;20406;-86
2022/04/04 11:10:05;;;;;;;11.98;7.00;;;7.90;67.50;;;;;;4896537;29;20048;-87
2022/04/04 11:12:54;;;;;;;9.52;6.50;;;7.90;67.50;;;;;;4895354;29;20078;-86
2022/04/04 11:15:44;;;;;;;9.32;6.47;;;7.80;67.40;;;;;;4894731;29;20064;-86
2022/04/04 11:18:13;;;;;;;9.45;6.32;;;7.80;67.40;;;;;;4895337;29;20056;-86
2022/04/04 11:20:58;;;;;;;9.65;6.53;;;7.90;67.40;;;;;;4896827;29;20056;-86
2022/04/04 11:23:27;;;;;;;10.27;5.93;;;7.80;67.40;;;;;;4895063;29;20100;-87
2022/04/04 11:25:55;;;;;;;13.00;6.50;;;7.80;67.50;;;;;;4895786;29;20045;-87
2022/04/04 11:28:30;;;;;;;10.23;5.78;;;7.80;67.60;;;;;;4898701;29;20561;-87
2022/04/04 11:31:07;;;;;;;8.07;5.57;;;7.80;67.60;;;;;;4896028;29;20048;-86
2022/04/04 11:33:47;;;;;;;13.23;6.20;;;7.90;67.70;;;;;;4896589;29;20057;-88
2022/04/04 11:36:22;;;;;;;8.10;5.35;;;7.90;67.70;;;;;;4894840;29;20052;-86
2022/04/04 11:38:51;;;;;;;9.45;5.80;;;7.90;67.70;;;;;;4896175;29;20044;-85
2022/04/04 11:41:22;;;;;;;9.80;4.82;;;7.90;67.70;;;;;;4894942;29;20057;-87
2022/04/04 11:43:52;;;;;;;11.30;5.15;;;7.90;67.80;;;;;;4896319;29;20522;-88
2022/04/04 11:46:19;;;;;;;14.32;5.25;;;7.90;67.90;;;;;;4898280;29;20051;-87
2022/04/04 11:48:54;;;;;;;10.07;5.82;;;7.90;67.90;;;;;;4894446;29;20056;-88
2022/04/04 11:51:36;;;;;;;9.25;5.30;;;7.90;68.00;;;;;;4894815;29;20052;-87
2022/04/04 11:54:07;;;;;;;8.40;5.00;;;7.90;68.00;;;;;;4894397;29;20052;-86
2022/04/04 11:56:34;;;;;;;7.43;4.80;;;7.90;68.10;;;;;;4894472;29;20048;-87
2022/04/04 11:59:04;;;;;;;7.55;4.70;;;8.00;68.10;;;;;;4895576;29;20502;-87
2022/04/04 12:01:34;;;;;;;9.77;5.25;;;8.00;68.20;;;;;;4897752;29;20087;-86
2022/04/04 12:04:05;;;;;;;13.30;5.32;;;8.00;68.30;;;;;;4897251;29;20080;-87
2022/04/04 12:06:34;;;;;;;7.28;5.03;;;8.00;68.30;;;;;;4894299;29;20083;-87
2022/04/04 12:09:07;;;;;;;8.35;5.57;;;8.00;68.40;;;;;;4894174;29;20138;-89
2022/04/04 12:11:35;;;;;;;9.30;5.13;;;8.10;68.40;;;;;;4894303;29;20510;-85
2022/04/04 12:14:02;;;;;;;10.32;5.80;;;8.10;68.50;;;;;;4894174;29;20049;-85
2022/04/04 12:16:30;;;;;;;14.25;5.68;;;8.10;68.50;;;;;;4897567;29;20052;-85
2022/04/04 12:19:00;;;;;;;7.93;5.35;;;8.10;68.60;;;;;;4894088;29;20060;-89
2022/04/04 12:21:27;;;;;;;10.10;5.80;;;8.10;68.60;;;;;;4894046;29;20052;-85
2022/04/04 12:26:43;;;;;;;11.10;5.60;;;8.10;68.90;;;;;;4893942;29;20040;-87
2022/04/04 12:29:12;;;;;;;9.95;5.45;;;8.10;68.90;;;;;;4893706;29;20053;-86
2022/04/04 12:31:56;;;;;;;10.50;5.55;;;8.20;69.00;;;;;;4895147;29;20052;-86
2022/04/04 12:34:25;;;;;;;10.13;6.22;;;8.20;69.10;;;;;;4893840;29;20233;-87
2022/04/04 12:36:59;;;;;;;11.18;5.90;;;8.20;69.20;;;;;;4893742;29;20540;-87
2022/04/04 12:39:26;;;;;;;8.13;6.07;;;8.20;69.30;;;;;;4893571;29;20059;-86
2022/04/04 12:41:54;;;;;;;10.90;5.68;;;8.20;69.40;;;;;;4893300;29;20051;-86
2022/04/04 12:44:26;;;;;;;11.55;5.93;;;8.20;69.50;;;;;;4895419;29;20044;-87
2022/04/04 12:47:12;;;;;;;10.68;6.18;;;8.20;69.60;;;;;;4893581;29;20097;-85
2022/04/04 12:49:40;;;;;;;9.70;5.80;;;8.20;69.80;;;;;;4892839;29;20108;-86
2022/04/04 12:52:27;;;;;;;9.05;6.25;;;8.20;69.90;;;;;;4893696;29;20518;-87
2022/04/04 12:55:10;;;;;;;9.40;6.65;;;8.20;70.10;;;;;;4894129;29;20052;-89
2022/04/04 12:57:37;;;;;;;10.15;5.95;;;8.20;70.30;;;;;;4893131;29;20048;-86
2022/04/04 13:00:05;;;;;;;8.20;6.25;;;8.20;70.40;;;;;;4893300;29;20052;-89
2022/04/04 13:02:34;;;;;;;10.27;6.70;;;8.20;70.70;;;;;;4895163;29;20044;-86
2022/04/04 13:05:12;;;;;;;10.88;7.18;;;8.10;71.00;;;;;;4893483;29;20120;-86
2022/04/04 13:07:56;;;;;;;10.20;6.45;;;8.10;71.40;;;;;;4894663;29;20064;-86
2022/04/04 13:10:28;;;;;;;10.00;6.75;;;8.10;71.80;;;;;;4896937;29;20049;-86